Time;durP1;ratioP1;P1;durP2;ratioP2;P2;SDS_P1;SDS_P2;PMS_P1;PMS_P2;Temp;Humidity;BMP_temperature;BMP_pressure;BME280_temperature;BME280_humidity;BME280_pressure;Samples;Min_cycle;Max_cycle;Signal;HPM_P1;HPM_P2
2022/03/25 00:01:46;;;;;;;0.20;0.20;;;;;;;9.48;72.18;101332.34;5093689;28;20028;-71
2022/03/25 00:04:18;;;;;;;0.20;0.20;;;;;;;9.47;71.75;101317.66;5093765;28;20427;-72
2022/03/25 00:06:47;;;;;;;0.20;0.20;;;;;;;9.39;72.13;101327.63;5093165;28;20043;-71
2022/03/25 00:09:12;;;;;;;0.20;0.20;;;;;;;9.33;72.25;101328.94;5092839;28;20105;-72
2022/03/25 00:11:41;;;;;;;0.20;0.20;;;;;;;9.30;71.93;101324.03;5092966;28;20070;-71
2022/03/25 00:14:11;;;;;;;0.20;0.20;;;;;;;9.28;71.71;101314.41;5094131;28;20051;-71
2022/03/25 00:16:44;;;;;;;0.20;0.20;;;;;;;9.26;72.28;101320.25;5092792;28;20035;-72
2022/03/25 00:19:10;;;;;;;0.20;0.20;;;;;;;9.27;72.00;101315.53;5092751;28;20073;-72
2022/03/25 00:21:38;;;;;;;0.20;0.20;;;;;;;9.24;71.50;101311.44;5093482;28;20120;-72
2022/03/25 00:24:05;;;;;;;0.20;0.20;;;;;;;9.21;71.79;101308.50;5092512;28;20048;-71
2022/03/25 00:26:32;;;;;;;0.20;0.20;;;;;;;9.07;72.66;101297.56;5092571;28;20024;-72
2022/03/25 00:28:57;;;;;;;0.20;0.20;;;;;;;9.21;72.29;101308.50;5093192;28;20417;-72
2022/03/25 00:31:29;;;;;;;0.20;0.20;;;;;;;9.30;72.43;101312.09;5093152;28;20039;-71
2022/03/25 00:33:54;;;;;;;0.20;0.20;;;;;;;9.29;71.42;101305.72;5092974;28;20135;-71
2022/03/25 00:36:23;;;;;;;0.20;0.20;;;;;;;9.36;70.24;101308.81;5092476;28;20567;-72
2022/03/25 00:38:49;;;;;;;0.20;0.20;;;;;;;9.26;70.88;101300.81;5092477;28;20473;-72
2022/03/25 00:41:24;;;;;;;0.20;0.20;;;;;;;9.21;71.67;101308.50;5092885;28;20483;-71
2022/03/25 00:43:50;;;;;;;0.20;0.20;;;;;;;9.22;71.30;101299.88;5092862;28;20462;-72
2022/03/25 00:46:27;;;;;;;0.20;0.20;;;;;;;9.25;71.07;101301.16;5092631;28;20031;-71
2022/03/25 00:48:53;;;;;;;0.20;0.20;;;;;;;9.20;71.63;101302.13;5092368;28;20032;-72
2022/03/25 00:51:22;;;;;;;0.20;0.20;;;;;;;9.14;71.54;101292.34;5092958;28;20077;-72
2022/03/25 00:53:51;;;;;;;0.20;0.20;;;;;;;9.10;72.91;101299.69;5093482;28;20027;-72
2022/03/25 00:56:18;;;;;;;0.20;0.20;;;;;;;9.04;71.92;101289.88;5095985;28;20081;-73
2022/03/25 00:58:44;;;;;;;0.20;0.20;;;;;;;9.12;71.96;101298.22;5099023;28;20088;-73
2022/03/25 01:01:10;;;;;;;0.20;0.20;;;;;;;9.04;72.52;101298.22;5099046;28;20032;-74
2022/03/25 01:03:38;;;;;;;0.20;0.20;;;;;;;9.01;71.46;101296.09;5100819;28;20028;-74
2022/03/25 01:06:07;;;;;;;0.20;0.20;;;;;;;8.99;71.78;101290.03;5099123;28;20028;-72
2022/03/25 01:08:35;;;;;;;0.20;0.20;;;;;;;8.90;72.41;101284.50;5096321;28;20068;-72
2022/03/25 01:11:12;;;;;;;0.20;0.20;;;;;;;8.86;72.36;101287.09;5096353;28;20088;-72
2022/03/25 01:13:38;;;;;;;0.20;0.20;;;;;;;8.84;72.08;101286.63;5097082;28;20040;-72
2022/03/25 01:16:05;;;;;;;0.20;0.20;;;;;;;8.91;71.56;101286.94;5096801;28;20039;-71
2022/03/25 01:18:36;;;;;;;0.20;0.20;;;;;;;8.81;72.18;101278.91;5097289;28;20035;-72
2022/03/25 01:21:02;;;;;;;0.20;0.20;;;;;;;8.82;72.23;101280.56;5097251;28;20028;-72
2022/03/25 01:23:31;;;;;;;0.20;0.20;;;;;;;8.82;72.37;101271.41;5096126;28;20059;-72
2022/03/25 01:25:56;;;;;;;0.20;0.20;;;;;;;8.75;73.06;101274.66;5095910;28;20089;-72
2022/03/25 01:28:24;;;;;;;0.20;0.20;;;;;;;8.76;72.79;101279.06;5096213;28;20028;-72
2022/03/25 01:30:52;;;;;;;0.20;0.20;;;;;;;8.71;73.19;101278.41;5097062;28;20028;-72
2022/03/25 01:33:23;;;;;;;0.20;0.20;;;;;;;8.63;73.28;101277.28;5096766;28;20435;-72
2022/03/25 01:35:51;;;;;;;0.20;0.20;;;;;;;8.57;73.54;101278.53;5095877;28;20081;-72
2022/03/25 01:38:32;;;;;;;0.20;0.20;;;;;;;8.68;72.92;101262.41;5095728;28;20034;-73
2022/03/25 01:40:58;;;;;;;0.20;0.20;;;;;;;8.66;73.32;101265.50;5096202;28;20045;-72
2022/03/25 01:43:24;;;;;;;0.20;0.20;;;;;;;8.56;74.10;101260.25;5096088;28;20032;-72
2022/03/25 01:45:51;;;;;;;0.20;0.20;;;;;;;8.61;73.83;101266.47;5095258;28;20381;-72
2022/03/25 01:48:17;;;;;;;0.20;0.20;;;;;;;8.54;73.67;101262.56;5095347;28;20051;-72
2022/03/25 01:50:46;;;;;;;0.20;0.20;;;;;;;8.43;74.00;101261.22;5095530;28;20115;-72
2022/03/25 01:53:21;;;;;;;0.20;0.20;;;;;;;8.38;74.51;101268.53;5095401;28;20024;-72
2022/03/25 01:55:58;;;;;;;0.20;0.20;;;;;;;8.33;74.99;101265.88;5095963;28;20032;-73
2022/03/25 01:58:25;;;;;;;0.20;0.20;;;;;;;8.36;74.57;101262.53;5095303;28;20055;-73
2022/03/25 02:01:08;;;;;;;0.20;0.20;;;;;;;8.44;74.62;101262.84;5095204;28;20036;-72
2022/03/25 02:03:37;;;;;;;0.20;0.20;;;;;;;8.38;74.79;101268.53;5095286;28;20028;-72
2022/03/25 02:06:06;;;;;;;0.20;0.20;;;;;;;8.26;75.07;101268.31;5095715;28;20083;-72
2022/03/25 02:08:32;;;;;;;0.20;0.20;;;;;;;8.20;76.35;101261.25;5095030;28;20032;-71
2022/03/25 02:11:01;;;;;;;0.20;0.20;;;;;;;8.18;75.41;101258.00;5094965;28;20020;-72
2022/03/25 02:13:29;;;;;;;0.20;0.20;;;;;;;8.15;76.11;101255.88;5078246;28;20040;-71
2022/03/25 02:15:57;;;;;;;0.20;0.20;;;;;;;8.24;75.14;101253.94;5095586;28;20055;-72
2022/03/25 02:18:29;;;;;;;0.20;0.20;;;;;;;8.21;75.35;101254.59;5094854;28;20035;-72
2022/03/25 02:20:59;;;;;;;0.20;0.20;;;;;;;8.24;75.15;101259.50;5094877;28;20025;-72
2022/03/25 02:23:24;;;;;;;0.20;0.20;;;;;;;8.12;76.00;101256.50;5094628;28;20147;-72
2022/03/25 02:25:54;;;;;;;0.20;0.20;;;;;;;8.10;76.99;101253.25;5094959;28;20111;-73
2022/03/25 02:28:29;;;;;;;0.20;0.20;;;;;;;8.07;76.77;101256.66;5094636;28;20032;-72
2022/03/25 02:30:54;;;;;;;0.20;0.20;;;;;;;8.05;76.79;101262.53;5095383;28;20020;-72
2022/03/25 02:33:31;;;;;;;0.20;0.20;;;;;;;8.08;76.97;101255.50;5095101;28;20480;-72
2022/03/25 02:36:00;;;;;;;0.20;0.20;;;;;;;8.16;76.92;101260.28;5094505;28;20041;-72
2022/03/25 02:38:28;;;;;;;0.20;0.20;;;;;;;8.11;76.34;101257.66;5094571;28;20032;-73
2022/03/25 02:40:54;;;;;;;0.20;0.20;;;;;;;8.10;76.11;101259.63;5094444;28;20024;-72
2022/03/25 02:43:22;;;;;;;0.43;0.20;;;;;;;8.11;76.35;101254.88;5094506;28;20432;-73
2022/03/25 02:45:52;;;;;;;0.20;0.20;;;;;;;8.05;76.72;101253.41;5094406;28;20089;-72
2022/03/25 02:48:17;;;;;;;0.20;0.20;;;;;;;7.97;76.91;101248.63;5094869;28;20028;-73
2022/03/25 02:50:52;;;;;;;0.20;0.20;;;;;;;8.00;76.96;101253.53;5094031;28;20432;-73
2022/03/25 02:53:20;;;;;;;0.20;0.20;;;;;;;7.94;76.82;101243.75;5095010;28;20114;-72
2022/03/25 02:55:46;;;;;;;0.20;0.20;;;;;;;7.95;76.95;101248.13;5094411;28;20116;-72
2022/03/25 02:58:45;;;;;;;0.20;0.20;;;;;;;7.87;77.47;101249.72;5094244;28;20056;-73
2022/03/25 03:01:13;;;;;;;0.20;0.20;;;;;;;7.89;77.61;101258.53;5094979;28;20039;-72
2022/03/25 03:06:46;;;;;;;0.20;0.20;;;;;;;7.80;78.44;101266.00;5014632;28;20038;-72
2022/03/25 03:09:15;;;;;;;0.20;0.20;;;;;;;7.83;77.49;101251.50;5088716;28;20117;-73
2022/03/25 03:11:40;;;;;;;0.20;0.20;;;;;;;7.80;77.57;101244.63;5094096;28;20549;-72
2022/03/25 03:14:22;;;;;;;0.20;0.20;;;;;;;7.90;78.21;101249.09;5093702;28;20111;-73
2022/03/25 03:16:50;;;;;;;0.20;0.20;;;;;;;7.79;77.43;101243.00;5093776;28;20039;-72
2022/03/25 03:19:16;;;;;;;0.20;0.20;;;;;;;7.99;77.21;101254.66;5094323;28;20382;-73
2022/03/25 03:21:45;;;;;;;0.20;0.20;;;;;;;7.90;76.97;101256.59;5094293;28;20119;-73
2022/03/25 03:24:13;;;;;;;0.20;0.20;;;;;;;7.87;78.00;101256.06;5095141;28;20048;-74
2022/03/25 03:27:07;;;;;;;0.20;0.20;;;;;;;7.84;77.73;101259.50;5093080;28;20024;-73
2022/03/25 03:29:39;;;;;;;0.20;0.20;;;;;;;7.79;77.73;101256.03;5084375;28;20052;-72
2022/03/25 03:32:05;;;;;;;0.20;0.20;;;;;;;7.82;77.90;101253.44;5093551;28;20481;-73
2022/03/25 03:34:34;;;;;;;0.20;0.20;;;;;;;7.90;77.55;101259.38;5093930;28;20412;-73
2022/03/25 03:37:00;;;;;;;0.20;0.20;;;;;;;7.83;77.69;101257.06;5093626;28;20027;-72
2022/03/25 03:39:26;;;;;;;0.20;0.20;;;;;;;7.82;77.79;101261.75;5094330;28;20348;-72
2022/03/25 03:42:04;;;;;;;0.20;0.20;;;;;;;7.78;78.32;101262.72;5094275;28;20048;-72
2022/03/25 03:44:29;;;;;;;0.20;0.20;;;;;;;7.81;78.04;101262.88;5093892;28;20036;-73
2022/03/25 03:46:56;;;;;;;0.20;0.20;;;;;;;7.80;78.00;101264.03;5093868;28;20344;-73
2022/03/25 03:49:22;;;;;;;0.20;0.20;;;;;;;7.75;78.05;101264.16;5093164;28;20031;-72
2022/03/25 03:51:53;;;;;;;0.20;0.20;;;;;;;7.87;77.30;101267.16;5093068;28;20024;-73
2022/03/25 03:54:27;;;;;;;0.20;0.20;;;;;;;7.85;76.58;101263.09;5093072;28;20092;-73
2022/03/25 03:56:56;;;;;;;0.20;0.20;;;;;;;7.78;77.15;101263.53;5093060;28;20116;-72
2022/03/25 03:59:21;;;;;;;0.20;0.20;;;;;;;7.79;77.65;101267.13;5093084;28;20111;-72
2022/03/25 04:01:53;;;;;;;0.20;0.20;;;;;;;7.74;77.50;101261.72;5093558;28;20089;-73
2022/03/25 04:04:25;;;;;;;0.20;0.20;;;;;;;7.67;78.32;101270.50;5093616;28;20039;-73
2022/03/25 04:06:53;;;;;;;0.20;0.20;;;;;;;7.64;78.80;101268.34;5093099;28;20038;-73
2022/03/25 04:09:21;;;;;;;0.20;0.20;;;;;;;7.65;78.75;101271.94;5093494;28;20094;-73
2022/03/25 04:11:47;;;;;;;0.20;0.20;;;;;;;7.66;79.34;101276.31;5095391;28;20366;-73
2022/03/25 04:14:40;;;;;;;0.20;0.20;;;;;;;7.75;79.38;101274.44;5096704;28;20064;-72
2022/03/25 04:17:08;;;;;;;0.20;0.20;;;;;;;7.73;79.40;101271.19;5097386;28;20451;-73
2022/03/25 04:19:37;;;;;;;0.20;0.20;;;;;;;7.66;79.08;101279.09;5099466;28;20028;-74
2022/03/25 04:22:06;;;;;;;0.20;0.20;;;;;;;7.65;79.55;101277.47;5099331;28;20470;-74
2022/03/25 04:24:32;;;;;;;0.20;0.20;;;;;;;7.68;79.46;101277.66;5096756;28;20051;-73
2022/03/25 04:27:10;;;;;;;0.20;0.20;;;;;;;7.76;79.50;101279.66;5096591;28;20109;-73
2022/03/25 04:29:39;;;;;;;0.20;0.20;;;;;;;7.71;79.16;101285.31;5092950;28;20035;-72
2022/03/25 04:32:21;;;;;;;0.20;0.20;;;;;;;7.70;79.57;101278.16;5093418;28;20382;-72
2022/03/25 04:34:52;;;;;;;0.20;0.20;;;;;;;7.78;78.76;101285.72;5092656;28;20036;-72
2022/03/25 04:37:18;;;;;;;0.20;0.20;;;;;;;7.71;79.10;101285.31;5094721;28;20023;-72
2022/03/25 04:40:24;;;;;;;0.20;0.20;;;;;;;7.72;78.94;101295.25;5097179;28;20032;-72
2022/03/25 04:42:51;;;;;;;0.20;0.20;;;;;;;7.61;79.05;101291.94;5094860;28;20398;-72
2022/03/25 04:45:18;;;;;;;0.20;0.20;;;;;;;7.51;79.64;101294.13;5096700;28;20028;-73
2022/03/25 04:47:46;;;;;;;0.20;0.20;;;;;;;7.45;79.71;101287.09;5096663;28;20081;-72
2022/03/25 04:50:14;;;;;;;0.20;0.20;;;;;;;7.42;79.74;101293.28;5097314;28;20032;-72
2022/03/25 04:52:43;;;;;;;0.20;0.20;;;;;;;7.48;80.01;101287.31;5096415;28;20040;-72
2022/03/25 04:55:11;;;;;;;0.20;0.20;;;;;;;7.52;79.19;101293.03;5096501;28;20024;-72
2022/03/25 04:57:40;;;;;;;0.20;0.20;;;;;;;7.48;79.82;101292.84;5096584;28;20027;-72
2022/03/25 05:00:11;;;;;;;0.20;0.20;;;;;;;7.52;79.69;101299.38;5096538;28;20034;-73
2022/03/25 05:02:37;;;;;;;0.20;0.20;;;;;;;7.60;78.92;101306.09;5080154;28;20466;-73
2022/03/25 05:05:03;;;;;;;0.20;0.20;;;;;;;7.56;79.04;101305.09;5096320;28;20068;-71
2022/03/25 05:07:29;;;;;;;0.20;0.20;;;;;;;7.57;79.66;101302.03;5096276;28;20020;-72
2022/03/25 05:09:59;;;;;;;0.20;0.20;;;;;;;7.58;79.30;101309.19;5096053;28;20511;-71
2022/03/25 05:12:27;;;;;;;0.20;0.20;;;;;;;7.76;79.25;101306.53;5096327;28;20035;-72
2022/03/25 05:15:03;;;;;;;0.20;0.20;;;;;;;7.99;79.23;101310.09;5096606;28;20042;-72
2022/03/25 05:17:29;;;;;;;0.20;0.20;;;;;;;8.20;78.54;101302.84;5079160;28;20024;-73
2022/03/25 05:19:57;;;;;;;0.20;0.20;;;;;;;8.48;77.28;101311.00;5096052;28;20028;-73
2022/03/25 05:22:26;;;;;;;0.20;0.20;;;;;;;8.77;75.67;101305.69;5096293;28;20118;-72
2022/03/25 05:24:54;;;;;;;0.20;0.20;;;;;;;9.15;73.97;101310.63;5055733;28;20033;-72
2022/03/25 05:27:26;;;;;;;0.20;0.20;;;;;;;9.50;72.66;101308.66;5056646;28;20124;-73
2022/03/25 05:29:57;;;;;;;0.20;0.20;;;;;;;9.80;71.71;101306.84;5058936;28;20029;-72
2022/03/25 05:32:23;;;;;;;0.20;0.20;;;;;;;10.02;68.72;101305.78;5058961;28;20032;-73
2022/03/25 05:34:52;;;;;;;0.20;0.20;;;;;;;10.52;69.30;101302.34;5059310;28;20029;-72
2022/03/25 05:37:22;;;;;;;0.20;0.20;;;;;;;10.95;67.37;101307.63;5060138;28;20027;-72
2022/03/25 05:39:47;;;;;;;0.20;0.20;;;;;;;11.29;65.92;101314.09;5059018;28;20422;-72
2022/03/25 05:42:16;;;;;;;0.20;0.20;;;;;;;11.66;64.98;101311.47;5058735;28;20086;-72
2022/03/25 05:44:48;;;;;;;0.20;0.20;;;;;;;12.01;63.47;101314.75;5059131;28;20039;-73
2022/03/25 05:47:25;;;;;;;0.20;0.20;;;;;;;12.29;62.68;101314.91;5060755;28;20020;-73
2022/03/25 05:49:54;;;;;;;0.20;0.20;;;;;;;12.70;61.08;101310.28;5058034;28;20028;-71
2022/03/25 05:52:19;;;;;;;0.25;0.25;;;;;;;13.13;60.07;101322.81;5058675;28;20063;-71
2022/03/25 05:54:45;;;;;;;0.20;0.20;;;;;;;13.59;59.01;101324.22;5058581;28;20395;-73
2022/03/25 05:57:11;;;;;;;0.20;0.20;;;;;;;14.09;58.34;101315.19;5058282;28;20024;-71
2022/03/25 05:59:39;;;;;;;0.20;0.20;;;;;;;14.50;56.46;101323.47;5058386;28;20024;-72
2022/03/25 06:02:08;;;;;;;0.20;0.20;;;;;;;15.07;54.92;101320.03;5058372;28;20024;-72
2022/03/25 06:04:34;;;;;;;0.20;0.20;;;;;;;15.52;53.50;101323.41;5058213;28;20090;-72
2022/03/25 06:07:03;;;;;;;0.20;0.20;;;;;;;15.60;52.80;101323.16;5058946;28;20037;-72
2022/03/25 06:09:35;;;;;;;0.20;0.20;;;;;;;15.42;54.27;101319.19;5057684;28;20532;-71
2022/03/25 06:12:03;;;;;;;0.20;0.20;;;;;;;15.63;53.69;101325.28;5057986;28;20479;-71
2022/03/25 06:14:32;;;;;;;0.20;0.20;;;;;;;15.88;52.86;101324.97;5057964;28;20483;-72
2022/03/25 06:17:01;;;;;;;0.20;0.20;;;;;;;16.13;51.54;101326.22;5057734;28;20021;-72
2022/03/25 06:19:29;;;;;;;0.20;0.20;;;;;;;15.65;51.45;101325.69;5057727;28;20028;-73
2022/03/25 06:21:58;;;;;;;0.20;0.20;;;;;;;16.18;50.42;101327.91;5072903;28;20083;-72
2022/03/25 06:24:24;;;;;;;0.20;0.20;;;;;;;16.09;50.66;101331.00;5057368;28;20491;-74
2022/03/25 06:26:52;;;;;;;0.10;0.10;;;;;;;16.05;50.07;101335.72;5057954;28;20028;-72
2022/03/25 06:29:20;;;;;;;0.20;0.20;;;;;;;16.21;50.53;101316.75;5057516;28;20056;-73
2022/03/25 06:31:46;;;;;;;0.20;0.20;;;;;;;16.42;48.63;101338.00;5057695;28;20025;-72
2022/03/25 06:34:12;;;;;;;0.20;0.20;;;;;;;16.64;48.39;101339.16;5057591;28;20534;-72
2022/03/25 06:36:38;;;;;;;0.20;0.20;;;;;;;16.03;50.81;101332.44;5057374;28;20123;-72
2022/03/25 06:39:03;;;;;;;0.20;0.20;;;;;;;16.28;49.92;101340.53;5057272;28;20177;-72
2022/03/25 06:41:34;;;;;;;0.10;0.10;;;;;;;17.01;49.09;101336.56;5057173;28;20086;-74
2022/03/25 06:44:06;;;;;;;0.20;0.20;;;;;;;16.51;49.41;101341.34;5075183;28;20032;-72
2022/03/25 06:46:35;;;;;;;0.20;0.20;;;;;;;16.40;50.45;101343.97;5057532;28;20379;-72
2022/03/25 06:49:07;;;;;;;0.20;0.20;;;;;;;17.20;49.49;101339.22;5057043;28;20056;-73
2022/03/25 06:51:33;;;;;;;0.20;0.20;;;;;;;17.24;46.06;101345.72;5056894;28;20028;-70
2022/03/25 06:54:02;;;;;;;0.20;0.20;;;;;;;17.16;48.09;101315.91;5056778;28;20498;-70
2022/03/25 06:56:37;;;;;;;0.20;0.20;;;;;;;16.63;50.31;101332.72;5056705;28;20025;-71
2022/03/25 06:59:04;;;;;;;0.20;0.20;;;;;;;16.77;49.32;101344.22;5056648;28;20059;-71
2022/03/25 07:01:35;;;;;;;0.20;0.20;;;;;;;17.16;48.39;101338.38;5056208;28;20143;-71
2022/03/25 07:04:03;;;;;;;0.20;0.20;;;;;;;17.04;47.58;101335.78;5056734;28;20169;-70
2022/03/25 07:06:34;;;;;;;0.20;0.20;;;;;;;16.00;49.84;101352.84;5057385;28;20408;-72
2022/03/25 07:09:00;;;;;;;0.20;0.20;;;;;;;16.24;49.14;101343.28;5056570;28;20036;-71
2022/03/25 07:11:25;;;;;;;0.10;0.10;;;;;;;16.65;48.57;101330.34;5056459;28;20096;-72
2022/03/25 07:13:51;;;;;;;0.10;0.10;;;;;;;16.74;49.47;101338.56;5057044;28;20043;-72
2022/03/25 07:16:18;;;;;;;0.20;0.20;;;;;;;16.99;49.15;101341.72;5056502;28;20024;-73
2022/03/25 07:18:47;;;;;;;0.10;0.10;;;;;;;17.42;48.84;101339.56;5056456;28;20032;-72
2022/03/25 07:21:16;;;;;;;0.20;0.20;;;;;;;16.98;50.52;101345.75;5056257;28;20081;-72
2022/03/25 07:23:42;;;;;;;0.10;0.10;;;;;;;17.11;48.33;101333.09;5061159;28;20044;-73
2022/03/25 07:26:11;;;;;;;0.20;0.20;;;;;;;17.41;49.32;101343.53;5093260;28;20024;-72
2022/03/25 07:28:36;;;;;;;0.20;0.20;;;;;;;17.57;48.14;101343.34;5093048;28;20405;-72
2022/03/25 07:31:02;;;;;;;0.10;0.10;;;;;;;17.55;48.24;101354.97;5093257;28;20028;-72
2022/03/25 07:33:28;;;;;;;0.20;0.20;;;;;;;17.79;47.28;101348.91;5092824;28;20027;-72
2022/03/25 07:35:56;;;;;;;0.20;0.20;;;;;;;18.01;47.78;101343.50;5093678;28;20123;-73
2022/03/25 07:38:22;;;;;;;0.20;0.20;;;;;;;17.94;47.14;101344.22;5093018;28;20032;-72
2022/03/25 07:40:51;;;;;;;0.20;0.20;;;;;;;17.40;47.60;101336.28;5093556;28;20031;-73
2022/03/25 07:43:16;;;;;;;0.17;0.17;;;;;;;18.09;48.01;101344.38;5094824;28;20098;-72
2022/03/25 07:45:45;;;;;;;0.20;0.20;;;;;;;18.35;47.17;101347.06;5095685;28;20032;-72
2022/03/25 07:48:14;;;;;;;0.10;0.10;;;;;;;18.47;46.80;101348.78;5093817;28;20031;-72
2022/03/25 07:50:43;;;;;;;0.10;0.10;;;;;;;18.94;44.78;101339.53;5094266;28;20115;-72
2022/03/25 07:53:11;;;;;;;0.20;0.20;;;;;;;17.99;47.31;101345.88;5093353;28;20024;-70
2022/03/25 07:55:37;;;;;;;0.10;0.10;;;;;;;17.84;49.40;101338.47;5092623;28;20024;-71
2022/03/25 07:58:03;;;;;;;0.20;0.20;;;;;;;17.89;48.93;101340.94;5092676;28;20035;-70
2022/03/25 08:00:29;;;;;;;0.17;0.17;;;;;;;18.47;46.23;101345.97;5092824;28;20032;-70
2022/03/25 08:02:55;;;;;;;0.20;0.20;;;;;;;17.64;49.12;101347.06;5092514;28;20032;-71
2022/03/25 08:05:24;;;;;;;0.20;0.20;;;;;;;18.74;45.49;101347.44;5092553;28;20024;-71
2022/03/25 08:07:54;;;;;;;0.20;0.20;;;;;;;18.68;45.80;101343.34;5092456;28;20134;-71
2022/03/25 08:10:30;;;;;;;0.20;0.20;;;;;;;18.41;46.54;101345.50;5092484;28;20028;-71
2022/03/25 08:13:00;;;;;;;0.20;0.20;;;;;;;18.92;45.29;101341.13;5091948;28;20030;-71
2022/03/25 08:15:30;;;;;;;0.20;0.20;;;;;;;18.92;46.14;101352.41;5092202;28;20371;-72
2022/03/25 08:18:02;;;;;;;0.17;0.17;;;;;;;19.58;44.41;101350.38;5094001;28;20020;-70
2022/03/25 08:20:39;;;;;;;0.20;0.20;;;;;;;20.03;43.54;101342.50;5092624;28;20024;-72
2022/03/25 08:23:13;;;;;;;0.10;0.10;;;;;;;19.88;42.46;101348.09;5091970;28;20048;-71
2022/03/25 08:28:29;;;;;;;0.10;0.10;;;;;;;20.46;42.81;101351.06;5093690;28;20113;-71
2022/03/25 08:30:58;;;;;;;0.10;0.10;;;;;;;20.96;40.22;101351.06;5092534;28;20020;-70
2022/03/25 08:33:27;;;;;;;0.10;0.10;;;;;;;20.80;41.44;101348.66;5092266;28;20459;-71
2022/03/25 08:35:55;;;;;;;0.10;0.10;;;;;;;21.44;40.26;101346.53;5091089;28;20036;-71
2022/03/25 08:38:21;;;;;;;0.10;0.10;;;;;;;21.71;39.35;101346.03;5092083;28;20043;-70
2022/03/25 08:40:47;;;;;;;0.17;0.17;;;;;;;22.17;38.46;101348.66;5092054;28;20020;-71
2022/03/25 08:43:15;;;;;;;0.10;0.10;;;;;;;22.28;38.29;101351.41;5092603;28;20051;-70
2022/03/25 08:45:44;;;;;;;0.10;0.10;;;;;;;21.41;38.03;101347.38;5092124;28;20028;-70
2022/03/25 08:48:10;;;;;;;0.20;0.20;;;;;;;21.45;39.73;101342.47;5092046;28;20060;-69
2022/03/25 08:50:36;;;;;;;0.20;0.20;;;;;;;21.38;40.01;101336.84;5092165;28;20024;-71
2022/03/25 08:53:07;;;;;;;0.10;0.10;;;;;;;21.49;39.04;101344.50;5092629;28;20123;-70
2022/03/25 08:55:39;;;;;;;0.10;0.10;;;;;;;21.91;38.52;101332.19;5092085;28;20021;-71
2022/03/25 08:58:07;;;;;;;0.10;0.10;;;;;;;20.59;40.89;101336.13;5092391;28;20114;-70
2022/03/25 09:00:39;;;;;;;0.20;0.20;;;;;;;21.33;40.38;101337.28;5092843;28;20356;-70
2022/03/25 09:03:05;;;;;;;0.10;0.10;;;;;;;22.27;38.28;101335.63;5092306;28;20123;-71
2022/03/25 09:05:31;;;;;;;0.10;0.10;;;;;;;22.44;38.09;101329.03;5092076;28;20016;-70
2022/03/25 09:07:57;;;;;;;0.20;0.20;;;;;;;23.06;36.16;101332.13;5092464;28;20038;-71
2022/03/25 09:10:23;;;;;;;0.10;0.10;;;;;;;21.65;39.77;101331.50;5091947;28;20382;-71
2022/03/25 09:12:49;;;;;;;0.10;0.10;;;;;;;21.27;39.64;101316.25;5092718;28;20055;-71
2022/03/25 09:15:16;;;;;;;0.10;0.10;;;;;;;21.38;40.16;101333.22;5091893;28;20081;-71
2022/03/25 09:17:46;;;;;;;0.10;0.10;;;;;;;21.54;38.91;101315.75;5091827;28;20028;-71
2022/03/25 09:20:14;;;;;;;0.10;0.10;;;;;;;22.12;38.81;101322.78;5091990;28;20030;-72
2022/03/25 09:22:41;;;;;;;0.10;0.10;;;;;;;22.80;37.33;101331.56;5093373;28;20445;-71
2022/03/25 09:25:13;;;;;;;0.10;0.10;;;;;;;23.00;36.63;101332.59;5098191;28;20222;-71
2022/03/25 09:27:40;;;;;;;0.10;0.10;;;;;;;22.49;37.05;101314.41;5098989;28;20039;-71
2022/03/25 09:30:10;;;;;;;0.10;0.10;;;;;;;22.36;36.84;101320.97;5099104;28;20074;-70
2022/03/25 09:32:38;;;;;;;0.10;0.10;;;;;;;20.59;40.87;101312.72;5099346;28;20027;-70
2022/03/25 09:35:13;;;;;;;0.10;0.10;;;;;;;21.14;40.91;101310.19;5098980;28;20035;-71
2022/03/25 09:37:47;;;;;;;0.17;0.17;;;;;;;21.02;40.83;101310.63;5098704;28;20038;-70
2022/03/25 09:40:19;;;;;;;0.10;0.10;;;;;;;20.59;41.86;101312.72;5098520;28;20401;-70
2022/03/25 09:42:51;;;;;;;0.20;0.20;;;;;;;20.84;41.47;101307.03;5098607;28;20059;-69
2022/03/25 09:45:22;;;;;;;0.10;0.10;;;;;;;20.71;40.92;101309.47;5098436;28;20382;-70
2022/03/25 09:47:55;;;;;;;0.10;0.10;;;;;;;21.64;39.10;101303.59;5098484;28;20027;-69
2022/03/25 09:50:27;;;;;;;0.10;0.10;;;;;;;21.34;39.52;101302.06;5098163;28;20038;-69
2022/03/25 09:52:54;;;;;;;0.10;0.10;;;;;;;21.23;40.23;101295.63;5116689;28;20024;-69
2022/03/25 09:55:20;;;;;;;0.10;0.10;;;;;;;21.99;37.92;101296.91;5098334;28;20119;-71
2022/03/25 09:57:46;;;;;;;0.10;0.10;;;;;;;22.97;36.53;101293.72;5099012;28;20126;-70
2022/03/25 10:00:17;;;;;;;0.10;0.10;;;;;;;22.68;37.41;101292.34;5098541;28;20440;-69
2022/03/25 10:02:45;;;;;;;0.10;0.10;;;;;;;23.14;35.19;101291.91;5097807;28;20066;-72
2022/03/25 10:05:19;;;;;;;0.10;0.10;;;;;;;22.86;36.18;101292.19;5098171;28;20077;-70
2022/03/25 10:07:47;;;;;;;0.10;0.10;;;;;;;22.73;36.18;101291.88;5098068;28;20032;-71
2022/03/25 10:10:14;;;;;;;0.10;0.10;;;;;;;22.68;36.20;101283.84;5098086;28;20073;-70
2022/03/25 10:12:42;;;;;;;0.10;0.10;;;;;;;22.57;36.14;101285.97;5098511;28;20059;-69
2022/03/25 10:15:21;;;;;;;0.10;0.10;;;;;;;22.93;36.20;101286.47;5116600;28;20023;-69
2022/03/25 10:17:57;;;;;;;0.10;0.10;;;;;;;22.87;35.85;101283.25;5098604;28;20032;-70
2022/03/25 10:20:28;;;;;;;0.10;0.10;;;;;;;22.83;36.10;101281.66;5097777;28;20019;-70
2022/03/25 10:23:17;;;;;;;0.10;0.10;;;;;;;23.14;35.56;101276.91;5094188;28;20459;-70
2022/03/25 10:25:53;;;;;;;0.10;0.10;;;;;;;23.73;35.19;101259.53;5095981;28;20028;-69
2022/03/25 10:28:39;;;;;;;0.10;0.10;;;;;;;22.46;37.62;101269.84;5094154;28;20035;-70
2022/03/25 10:31:11;;;;;;;0.13;0.13;;;;;;;22.97;36.37;101276.69;5094298;28;20027;-69
2022/03/25 10:33:44;;;;;;;0.10;0.10;;;;;;;22.28;37.84;101269.19;5094100;28;20166;-70
2022/03/25 10:36:14;;;;;;;0.10;0.10;;;;;;;22.07;38.79;101275.00;5093907;28;20032;-70
2022/03/25 10:38:42;;;;;;;0.10;0.10;;;;;;;22.12;37.77;101260.44;5095900;28;20031;-70
2022/03/25 10:41:14;;;;;;;0.20;0.20;;;;;;;21.05;39.74;101266.59;5094057;28;20035;-71
2022/03/25 10:44:03;;;;;;;0.10;0.10;;;;;;;20.97;40.54;101264.97;5094804;28;20027;-69
2022/03/25 10:46:49;;;;;;;0.10;0.10;;;;;;;20.82;41.74;101259.34;5093918;28;20021;-70
2022/03/25 10:52:06;;;;;;;0.10;0.10;;;;;;;21.41;40.72;101251.13;5095698;28;20035;-70
2022/03/25 10:54:34;;;;;;;0.10;0.10;;;;;;;21.87;39.41;101252.88;5093854;28;20177;-70
2022/03/25 10:57:00;;;;;;;0.10;0.10;;;;;;;21.23;40.80;101250.34;5093662;28;20024;-69
2022/03/25 10:59:33;;;;;;;0.10;0.10;;;;;;;22.54;38.97;101247.13;5094154;28;20462;-71
2022/03/25 11:02:04;;;;;;;0.13;0.13;;;;;;;22.49;38.34;101245.53;5093942;28;20059;-70
2022/03/25 11:04:30;;;;;;;0.10;0.10;;;;;;;22.26;38.81;101246.13;5093713;28;20039;-71
2022/03/25 11:07:03;;;;;;;0.10;0.10;;;;;;;22.31;39.09;101233.53;5093641;28;20031;-71
2022/03/25 11:09:32;;;;;;;0.10;0.10;;;;;;;21.69;40.39;101238.81;5093512;28;20081;-71
2022/03/25 11:12:01;;;;;;;0.10;0.10;;;;;;;22.17;39.21;101234.47;5093591;28;20032;-70
2022/03/25 11:14:27;;;;;;;0.10;0.10;;;;;;;21.42;39.86;101232.91;5077032;28;20036;-70
2022/03/25 11:16:56;;;;;;;0.10;0.10;;;;;;;21.73;39.92;101233.13;5093471;28;20165;-70
2022/03/25 11:19:26;;;;;;;0.10;0.10;;;;;;;21.68;39.06;101239.25;5093349;28;20065;-71
2022/03/25 11:21:54;;;;;;;0.10;0.10;;;;;;;21.65;38.96;101235.19;5093370;28;20028;-70
2022/03/25 11:24:24;;;;;;;0.10;0.10;;;;;;;21.85;38.03;101238.31;5092830;28;20059;-70
2022/03/25 11:26:56;;;;;;;0.10;0.10;;;;;;;21.81;38.19;101234.69;5093181;28;20497;-70
2022/03/25 11:29:28;;;;;;;0.10;0.10;;;;;;;22.00;37.96;101226.88;5093035;28;20035;-71
2022/03/25 11:32:14;;;;;;;0.15;0.15;;;;;;;21.38;38.00;101225.66;5093176;28;20039;-70
2022/03/25 11:35:07;;;;;;;0.10;0.10;;;;;;;20.96;38.56;101226.59;5093559;28;20371;-69
2022/03/25 11:37:36;;;;;;;0.10;0.10;;;;;;;21.08;37.73;101220.47;5093122;28;20173;-70
2022/03/25 11:40:25;;;;;;;0.10;0.10;;;;;;;21.00;38.35;101218.91;5093044;28;20032;-71
2022/03/25 11:43:03;;;;;;;0.10;0.10;;;;;;;21.07;38.57;101216.84;5093633;28;20028;-70
2022/03/25 11:45:34;;;;;;;0.10;0.10;;;;;;;20.40;39.07;101215.78;5093513;28;20066;-70
2022/03/25 11:48:11;;;;;;;0.10;0.10;;;;;;;20.17;41.08;101218.19;5093602;28;20024;-70
2022/03/25 11:50:48;;;;;;;0.13;0.13;;;;;;;20.67;39.83;101206.88;5092824;28;20039;-70